Weather History for Marshall, MN

Change the Weather History Date:

Sunday, March 2, 2014

  Actual Average Record
Temperature  
Mean Temperature 0 °F -  
Max Temperature 10 °F 32 °F 55 °F (1974)
Min Temperature -11 °F 15 °F -12 °F (1962)
Degree Days  
Heating Degree Days 66    
Moisture  
Dew Point -14 °F    
Average Humidity 57    
Maximum Humidity 77    
Minimum Humidity 37    
Precipitation  
Precipitation 0.00 in - - ()
Sea Level Pressure  
Sea Level Pressure 30.51 in    
Wind  
Wind Speed 10 mph (NW)    
Max Wind Speed 17 mph    
Max Gust Speed 20 mph    
Visibility 10 miles    
Events      
Averages and records for this station are not official NWS values.
T = Trace of Precipitation, MM = Missing Value Source: NWS Daily Summary

Daily Weather History Graph

Daily Weather History Graph

Search for Another Location

Airport:

Trip Planner

Search our weather history database for the weather conditions in past years. The results will help you decide how hot, cold, wet, or windy it might be!

Date:

Astronomy

Mar. 02, 2014 Rise Set
Actual Time 6:58 AM CST 6:12 PM CST
Civil Twilight 6:29 AM CST 6:41 PM CST
Nautical Twilight 5:56 AM CST 7:15 PM CST
Astronomical Twilight 5:22 AM CST 7:49 PM CST
Moon 7:25 AM CST (3/2) 8:16 PM CST (3/2)
Length of Visible Light 12h 12m
Length of Day
11h 13m
Waxing Crescent, 3% of the Moon is Illuminated
Mar 2
Waxing Crescent
Mar 8
First Quarter
Mar 16
Full
Mar 23
Last Quarter
Mar 30
New

Hourly Weather History & Observations

Time (CST) Temp. Windchill Dew Point Humidity Pressure Visibility Wind Dir Wind Speed Gust Speed Precip Events Conditions
12:15 AM -7.6 °F -23.4 °F -14.8 °F 71% 30.53 in 10.0 mi North 8.1 mph - N/A   Clear
12:35 AM -9.4 °F -26.8 °F -18.4 °F 65% 30.52 in 10.0 mi North 9.2 mph - N/A   Clear
12:55 AM -9.4 °F -26.8 °F -16.6 °F 71% 30.53 in 10.0 mi North 9.2 mph - N/A   Clear
1:15 AM -9.4 °F -25.6 °F -18.4 °F 65% 30.54 in 10.0 mi North 8.1 mph - N/A   Clear
1:35 AM -9.4 °F -24.3 °F -18.4 °F 65% 30.55 in 10.0 mi NNW 6.9 mph - N/A   Clear
1:55 AM -9.4 °F -24.3 °F -16.6 °F 71% 30.54 in 10.0 mi NNW 6.9 mph - N/A   Clear
2:15 AM -11.2 °F -24.8 °F -16.6 °F 77% 30.53 in 10.0 mi North 5.8 mph - N/A   Clear
2:35 AM -11.2 °F -27.8 °F -18.4 °F 70% 30.52 in 10.0 mi North 8.1 mph - N/A   Clear
2:55 AM -9.4 °F -24.3 °F -18.4 °F 65% 30.51 in 10.0 mi NNW 6.9 mph - N/A   Clear
3:15 AM -9.4 °F -25.6 °F -20.2 °F 59% 30.52 in 10.0 mi NNW 8.1 mph - N/A   Clear
3:35 AM -11.2 °F -29.0 °F -20.2 °F 64% 30.53 in 10.0 mi NW 9.2 mph - N/A   Clear
3:55 AM -11.2 °F -26.4 °F -20.2 °F 64% 30.53 in 10.0 mi NW 6.9 mph - N/A   Clear
4:15 AM -11.2 °F -26.4 °F -18.4 °F 70% 30.54 in 10.0 mi WNW 6.9 mph - N/A   Clear
4:35 AM -11.2 °F -26.4 °F -20.2 °F 64% 30.53 in 10.0 mi WNW 6.9 mph - N/A   Clear
4:55 AM -11.2 °F -26.4 °F -20.2 °F 64% 30.53 in 10.0 mi WNW 6.9 mph - N/A   Clear
5:15 AM -11.2 °F -26.4 °F -20.2 °F 64% 30.53 in 10.0 mi WNW 6.9 mph - N/A   Clear
5:35 AM -11.2 °F -29.0 °F -20.2 °F 64% 30.53 in 10.0 mi WNW 9.2 mph - N/A   Clear
5:55 AM -11.2 °F -29.0 °F -20.2 °F 64% 30.53 in 10.0 mi NW 9.2 mph - N/A   Clear
6:15 AM -11.2 °F -31.1 °F -20.2 °F 64% 30.53 in 10.0 mi WNW 11.5 mph - N/A   Clear
6:35 AM -11.2 °F -31.1 °F -20.2 °F 64% 30.54 in 10.0 mi NW 11.5 mph - N/A   Clear
6:55 AM -11.2 °F -30.1 °F -20.2 °F 64% 30.55 in 10.0 mi WNW 10.4 mph - N/A   Clear
7:15 AM -11.2 °F -30.1 °F -18.4 °F 70% 30.53 in 10.0 mi NW 10.4 mph - N/A   Clear
7:35 AM -9.4 °F -29.8 °F -18.4 °F 65% 30.52 in 10.0 mi NW 12.7 mph - N/A   Clear
7:55 AM -9.4 °F -28.9 °F -18.4 °F 65% 30.52 in 10.0 mi NW 11.5 mph - N/A   Clear
8:15 AM -7.6 °F -26.6 °F -18.4 °F 59% 30.52 in 10.0 mi NW 11.5 mph - N/A   Clear
8:35 AM -7.6 °F -26.6 °F -18.4 °F 59% 30.53 in 10.0 mi NW 11.5 mph - N/A   Clear
8:55 AM -7.6 °F -29.8 °F -18.4 °F 59% 30.54 in 10.0 mi NW 16.1 mph - N/A   Clear
9:15 AM -5.8 °F -26.0 °F -16.6 °F 60% 30.53 in 10.0 mi NW 13.8 mph - N/A   Clear
9:35 AM -4.0 °F -23.7 °F -16.6 °F 55% 30.53 in 10.0 mi NNW 13.8 mph - N/A   Clear
9:55 AM -2.2 °F -20.7 °F -16.6 °F 50% 30.53 in 10.0 mi NW 12.7 mph - N/A   Clear
10:15 AM -2.2 °F -19.9 °F -16.6 °F 50% 30.53 in 10.0 mi NW 11.5 mph - N/A   Clear
10:35 AM -2.2 °F -18.0 °F -14.8 °F 55% 30.53 in 10.0 mi NW 9.2 mph - N/A   Clear
10:55 AM -0.4 °F -17.6 °F -14.8 °F 51% 30.53 in 10.0 mi NNW 11.5 mph 16.1 mph N/A   Clear
11:15 AM -0.4 °F -17.6 °F -14.8 °F 51% 30.53 in 10.0 mi NNW 11.5 mph 16.1 mph N/A   Clear
11:35 AM 1.4 °F -13.5 °F -14.8 °F 47% 30.54 in 10.0 mi NW 9.2 mph - N/A   Clear
11:55 AM 3.2 °F -12.2 °F -11.2 °F 51% 30.54 in 10.0 mi NNW 10.4 mph - N/A   Clear
12:15 PM 3.2 °F -13.1 °F -13.0 °F 47% 30.54 in 10.0 mi NW 11.5 mph - N/A   Clear
12:35 PM 3.2 °F -13.1 °F -11.2 °F 51% 30.53 in 10.0 mi WNW 11.5 mph 17.3 mph N/A   Clear
12:55 PM 3.2 °F -13.9 °F -11.2 °F 51% 30.52 in 10.0 mi WNW 12.7 mph 18.4 mph N/A   Clear
1:15 PM 5.0 °F -10.0 °F -11.2 °F 47% 30.51 in 10.0 mi NW 10.4 mph 16.1 mph N/A   Clear
1:35 PM 6.8 °F -6.9 °F -11.2 °F 44% 30.50 in 10.0 mi NW 9.2 mph - N/A   Clear
1:55 PM 6.8 °F -9.3 °F -11.2 °F 44% 30.49 in 10.0 mi NW 12.7 mph - N/A   Clear
2:15 PM 6.8 °F -9.3 °F -9.4 °F 48% 30.48 in 10.0 mi NW 12.7 mph 16.1 mph N/A   Clear
2:35 PM 8.6 °F -7.7 °F -11.2 °F 40% 30.48 in 10.0 mi NW 13.8 mph 18.4 mph N/A   Clear
2:55 PM 8.6 °F -7.7 °F -9.4 °F 44% 30.49 in 10.0 mi WNW 13.8 mph 19.6 mph N/A   Clear
3:15 PM 8.6 °F -5.5 °F -9.4 °F 44% 30.49 in 10.0 mi WNW 10.4 mph - N/A   Clear
3:35 PM 10.4 °F -4.8 °F -11.2 °F 37% 30.49 in 10.0 mi NW 12.7 mph 19.6 mph N/A   Clear
3:55 PM 10.4 °F -4.1 °F -11.2 °F 37% 30.48 in 10.0 mi NW 11.5 mph 17.3 mph N/A   Clear
4:15 PM 10.4 °F -4.1 °F -9.4 °F 41% 30.48 in 10.0 mi NW 11.5 mph 16.1 mph N/A   Clear
4:35 PM 10.4 °F -5.4 °F -9.4 °F 41% 30.48 in 10.0 mi WNW 13.8 mph 17.3 mph N/A   Clear
4:55 PM 8.6 °F -8.3 °F -9.4 °F 44% 30.48 in 10.0 mi WNW 15.0 mph - N/A   Clear
5:15 PM 8.6 °F -8.3 °F -9.4 °F 44% 30.48 in 10.0 mi WNW 15.0 mph - N/A   Clear
5:35 PM 8.6 °F -9.5 °F -9.4 °F 44% 30.47 in 10.0 mi WNW 17.3 mph - N/A   Clear
5:55 PM 6.8 °F -10.0 °F -9.4 °F 48% 30.46 in 10.0 mi WNW 13.8 mph - N/A   Clear
6:15 PM 6.8 °F -10.0 °F -9.4 °F 48% 30.46 in 10.0 mi NW 13.8 mph - N/A   Clear
6:35 PM 6.8 °F -9.3 °F -9.4 °F 48% 30.46 in 10.0 mi WNW 12.7 mph - N/A   Clear
6:55 PM 5.0 °F -10.0 °F -7.6 °F 56% 30.45 in 10.0 mi NW 10.4 mph - N/A   Clear
7:15 PM 3.2 °F -13.1 °F -9.4 °F 56% 30.47 in 10.0 mi NW 11.5 mph - N/A   Clear
7:35 PM 3.2 °F -12.2 °F -7.6 °F 61% 30.47 in 10.0 mi WNW 10.4 mph - N/A   Clear
7:55 PM 3.2 °F -10.3 °F -7.6 °F 61% 30.46 in 10.0 mi WNW 8.1 mph - N/A   Clear
8:15 PM 3.2 °F -12.2 °F -7.6 °F 61% 30.46 in 10.0 mi NW 10.4 mph - N/A   Clear
8:35 PM 1.4 °F -11.3 °F -7.6 °F 66% 30.47 in 10.0 mi WNW 6.9 mph - N/A   Clear
8:55 PM 1.4 °F -12.5 °F -9.4 °F 61% 30.47 in 10.0 mi NW 8.1 mph - N/A   Clear
9:15 PM 1.4 °F -12.5 °F -9.4 °F 61% 30.48 in 10.0 mi WNW 8.1 mph - N/A   Clear
9:35 PM 1.4 °F -11.3 °F -7.6 °F 66% 30.48 in 10.0 mi West 6.9 mph - N/A   Clear
9:55 PM 1.4 °F -12.5 °F -9.4 °F 61% 30.48 in 10.0 mi West 8.1 mph - N/A   Clear
10:15 PM 1.4 °F -12.5 °F -9.4 °F 61% 30.49 in 10.0 mi West 8.1 mph - N/A   Clear
10:35 PM 1.4 °F -12.5 °F -9.4 °F 61% 30.48 in 10.0 mi West 8.1 mph - N/A   Clear
10:55 PM 1.4 °F -11.3 °F -9.4 °F 61% 30.49 in 10.0 mi West 6.9 mph - N/A   Scattered Clouds
11:15 PM 1.4 °F -9.9 °F -9.4 °F 61% 30.49 in 10.0 mi WNW 5.8 mph - N/A   Overcast
11:35 PM 1.4 °F -9.9 °F -7.6 °F 66% 30.49 in 10.0 mi WNW 5.8 mph - N/A   Overcast
11:55 PM 3.2 °F -6.2 °F -7.6 °F 61% 30.48 in 10.0 mi West 4.6 mph - N/A   Overcast